createdAt,value
2019-04-26T00:02:34.334Z,52.10
2019-04-26T00:05:03.895Z,52.20
2019-04-26T00:07:32.926Z,52.30
2019-04-26T00:10:03.608Z,52.50
2019-04-26T00:12:34.280Z,52.80
2019-04-26T00:15:22.624Z,53.00
2019-04-26T00:17:56.577Z,53.20
2019-04-26T00:20:25.626Z,53.40
2019-04-26T00:22:54.892Z,53.60
2019-04-26T00:25:24.007Z,53.70
2019-04-26T00:27:53.037Z,53.90
2019-04-26T00:30:22.162Z,54.00
2019-04-26T00:32:51.180Z,54.20
2019-04-26T00:35:20.235Z,54.40
2019-04-26T00:37:49.262Z,54.60
2019-04-26T00:40:18.333Z,54.90
2019-04-26T00:42:47.498Z,55.00
2019-04-26T00:45:16.775Z,55.20
2019-04-26T00:47:46.873Z,55.40
2019-04-26T00:50:17.072Z,55.60
2019-04-26T00:52:46.731Z,55.90
2019-04-26T00:55:17.656Z,56.10
2019-04-26T00:57:46.999Z,56.40
2019-04-26T01:00:18.230Z,56.50
2019-04-26T01:02:54.859Z,56.70
2019-04-26T01:05:23.889Z,56.90
2019-04-26T01:07:55.060Z,57.00
2019-04-26T01:10:24.221Z,57.10
2019-04-26T01:12:53.265Z,57.40
2019-04-26T01:15:23.309Z,57.30
2019-04-26T01:17:53.059Z,57.50
2019-04-26T01:20:24.692Z,57.60
2019-04-26T01:22:56.302Z,57.70
2019-04-26T01:25:40.389Z,57.90
2019-04-26T01:28:18.524Z,58.00
2019-04-26T01:30:50.309Z,58.10
2019-04-26T01:33:20.379Z,58.20
2019-04-26T01:35:50.194Z,58.40
2019-04-26T01:38:20.386Z,58.50
2019-04-26T01:40:51.809Z,58.60
2019-04-26T01:43:28.733Z,58.60
2019-04-26T01:46:07.475Z,58.80
2019-04-26T01:48:50.834Z,59.50
2019-04-26T01:51:29.033Z,59.10
2019-04-26T01:53:58.150Z,59.90
2019-04-26T01:56:31.363Z,59.30
2019-04-26T01:59:00.852Z,59.60
2019-04-26T02:01:48.258Z,59.90
2019-04-26T02:04:17.455Z,60.00
2019-04-26T02:06:46.553Z,60.10
2019-04-26T02:09:15.677Z,60.50
2019-04-26T02:11:44.709Z,60.80
2019-04-26T02:14:14.186Z,61.00
2019-04-26T02:16:43.566Z,61.30
2019-04-26T02:19:12.668Z,61.50
2019-04-26T02:21:44.096Z,61.70
2019-04-26T02:24:17.910Z,61.90
2019-04-26T02:26:49.136Z,62.20
2019-04-26T02:29:25.106Z,62.50
2019-04-26T02:31:57.509Z,62.70
2019-04-26T02:34:29.399Z,63.00
2019-04-26T02:37:01.239Z,63.30
2019-04-26T02:39:37.707Z,63.50
2019-04-26T02:42:12.658Z,63.70
2019-04-26T02:44:46.404Z,63.80
2019-04-26T02:47:41.810Z,64.00
2019-04-26T02:50:21.343Z,64.10
2019-04-26T02:52:59.333Z,64.40
2019-04-26T02:55:57.066Z,64.60
2019-04-26T02:58:33.303Z,64.80
2019-04-26T03:01:03.112Z,65.10
2019-04-26T03:03:34.219Z,65.30
2019-04-26T03:06:04.102Z,65.50
2019-04-26T03:08:37.957Z,65.60
2019-04-26T03:11:10.532Z,65.80
2019-04-26T03:13:44.598Z,66.00
2019-04-26T03:16:31.401Z,66.20
2019-04-26T03:19:10.935Z,66.40
2019-04-26T03:21:46.465Z,66.50
2019-04-26T03:24:27.390Z,66.70
2019-04-26T03:27:19.071Z,66.90
2019-04-26T03:30:24.719Z,67.00
2019-04-26T03:33:12.258Z,67.20
2019-04-26T03:35:57.078Z,67.50
2019-04-26T03:38:34.472Z,67.70
2019-04-26T03:41:34.411Z,67.90
2019-04-26T03:44:21.270Z,68.10
2019-04-26T03:46:53.458Z,68.20
2019-04-26T03:49:42.010Z,68.50
2019-04-26T03:52:26.491Z,68.50
2019-04-26T03:54:58.676Z,68.60
2019-04-26T03:57:38.797Z,68.70
2019-04-26T04:00:31.442Z,68.90
2019-04-26T04:03:08.058Z,68.90
2019-04-26T04:05:43.739Z,69.00
2019-04-26T04:08:15.780Z,69.10
2019-04-26T04:10:50.526Z,69.00
2019-04-26T04:13:42.588Z,69.00
2019-04-26T04:16:21.543Z,68.90
2019-04-26T04:19:08.574Z,69.70
2019-04-26T04:21:46.413Z,68.70
2019-04-26T04:24:18.977Z,68.50
2019-04-26T04:27:05.853Z,68.20
2019-04-26T04:29:50.477Z,68.10
2019-04-26T04:32:17.867Z,68.00
2019-04-26T04:34:50.003Z,67.80
2019-04-26T04:37:21.851Z,67.60
2019-04-26T04:40:16.746Z,67.40
2019-04-26T04:42:56.534Z,67.20
2019-04-26T04:45:43.912Z,67.20
2019-04-26T04:48:23.176Z,67.20
2019-04-26T04:51:26.917Z,67.20
2019-04-26T04:54:04.611Z,67.20
2019-04-26T04:56:54.642Z,67.20
2019-04-26T04:59:29.359Z,67.30
2019-04-26T05:02:25.833Z,67.40
2019-04-26T05:05:05.302Z,67.40
2019-04-26T05:07:39.956Z,67.40
2019-04-26T05:10:14.981Z,67.40
2019-04-26T05:13:06.711Z,67.40
2019-04-26T05:16:13.914Z,67.40
2019-04-26T05:18:52.727Z,67.50
2019-04-26T05:21:45.391Z,67.50
2019-04-26T05:24:23.764Z,67.40
2019-04-26T05:27:09.172Z,67.50
2019-04-26T05:29:48.631Z,67.70
2019-04-26T05:32:36.961Z,67.70
2019-04-26T05:35:49.100Z,67.70
2019-04-26T05:38:39.326Z,67.90
2019-04-26T05:41:20.432Z,68.00
2019-04-26T05:43:59.952Z,68.10
2019-04-26T05:46:45.809Z,68.20
2019-04-26T05:49:28.714Z,68.10
2019-04-26T05:52:31.263Z,69.10
2019-04-26T05:55:10.232Z,68.20
2019-04-26T05:57:43.994Z,68.20
2019-04-26T06:00:43.274Z,68.40
2019-04-26T06:03:39.440Z,68.20
2019-04-26T06:06:31.026Z,68.20
2019-04-26T06:09:13.646Z,68.30
2019-04-26T06:11:47.460Z,68.30
2019-04-26T06:14:45.189Z,68.20
2019-04-26T06:17:33.542Z,68.10
2019-04-26T06:20:25.759Z,68.30
2019-04-26T06:23:06.477Z,68.30
2019-04-26T06:25:40.248Z,68.10
2019-04-26T06:28:29.037Z,68.10
2019-04-26T06:31:03.950Z,68.00
2019-04-26T06:33:36.065Z,68.00
2019-04-26T06:36:09.569Z,67.90
2019-04-26T06:39:18.095Z,67.80
2019-04-26T06:42:07.561Z,67.60
2019-04-26T06:44:54.898Z,67.50
2019-04-26T06:47:49.800Z,67.30
2019-04-26T06:50:26.169Z,67.20
2019-04-26T06:53:01.543Z,67.00
2019-04-26T06:55:52.328Z,66.80
2019-04-26T06:58:39.479Z,66.60
2019-04-26T07:01:32.701Z,66.50
2019-04-26T07:04:16.973Z,66.20
2019-04-26T07:07:05.566Z,66.00
2019-04-26T07:09:55.761Z,66.00
2019-04-26T07:12:47.706Z,65.60
2019-04-26T07:15:29.037Z,65.40
2019-04-26T07:18:02.159Z,65.10
2019-04-26T07:20:38.616Z,65.00
2019-04-26T07:23:40.496Z,64.30
2019-04-26T07:26:32.348Z,64.80
2019-04-26T07:29:26.835Z,64.50
2019-04-26T07:32:05.316Z,64.50
2019-04-26T07:34:41.807Z,64.20
2019-04-26T07:37:47.232Z,64.20
2019-04-26T07:40:40.387Z,64.00
2019-04-26T07:43:33.560Z,63.70
2019-04-26T07:46:39.132Z,63.50
2019-04-26T07:49:12.426Z,63.30
2019-04-26T07:52:02.907Z,63.40
2019-04-26T07:54:44.158Z,63.10
2019-04-26T07:57:32.798Z,63.00
2019-04-26T08:00:30.912Z,62.90
2019-04-26T08:03:10.829Z,62.70
2019-04-26T08:05:50.150Z,62.40
2019-04-26T08:08:22.558Z,62.20
2019-04-26T08:11:13.333Z,62.00
2019-04-26T08:13:57.666Z,61.60
2019-04-26T08:16:33.244Z,61.40
2019-04-26T08:19:07.088Z,61.00
2019-04-26T08:21:42.770Z,60.50
2019-04-26T08:24:21.572Z,60.00
2019-04-26T08:26:53.767Z,60.00
2019-04-26T08:29:25.152Z,59.90
2019-04-26T08:31:57.884Z,60.00
2019-04-26T08:34:33.819Z,59.80
2019-04-26T08:37:07.749Z,59.30
2019-04-26T08:39:45.509Z,59.20
2019-04-26T08:42:18.138Z,59.00
2019-04-26T08:44:54.662Z,58.50
2019-04-26T08:47:42.079Z,58.30
2019-04-26T08:50:18.485Z,58.00
2019-04-26T08:52:49.469Z,58.00
2019-04-26T08:55:20.281Z,57.80
2019-04-26T08:57:52.399Z,57.70
2019-04-26T09:00:40.729Z,57.70
2019-04-26T09:03:14.151Z,57.70
2019-04-26T09:06:05.630Z,57.30
2019-04-26T09:08:39.362Z,57.30
2019-04-26T09:11:23.759Z,57.30
2019-04-26T09:13:44.790Z,57.10
2019-04-26T09:16:16.545Z,57.00
2019-04-26T09:18:52.403Z,57.10
2019-04-26T09:21:19.283Z,57.00
2019-04-26T09:23:55.906Z,57.10
2019-04-26T09:26:35.681Z,57.10
2019-04-26T09:29:26.295Z,57.20
2019-04-26T09:32:06.452Z,57.20
2019-04-26T09:34:41.234Z,57.30
2019-04-26T09:37:11.141Z,57.70
2019-04-26T09:39:41.621Z,57.10
2019-04-26T09:42:24.896Z,56.90
2019-04-26T09:44:58.555Z,56.70
2019-04-26T09:47:29.228Z,56.50
2019-04-26T09:50:18.345Z,56.20
2019-04-26T09:52:51.797Z,56.60
2019-04-26T09:55:21.011Z,56.20
2019-04-26T09:57:53.517Z,56.20
2019-04-26T10:00:28.293Z,56.20
2019-04-26T10:02:57.382Z,56.00
2019-04-26T10:05:26.812Z,56.00
2019-04-26T10:07:55.844Z,56.00
2019-04-26T10:10:30.739Z,56.00
2019-04-26T10:13:16.138Z,56.00
2019-04-26T10:15:46.893Z,55.90
2019-04-26T10:18:20.368Z,55.90
2019-04-26T10:20:48.330Z,55.90
2019-04-26T10:23:17.388Z,55.80
2019-04-26T10:25:47.317Z,55.70
2019-04-26T10:28:17.301Z,55.60
2019-04-26T10:30:46.371Z,55.50
2019-04-26T10:33:15.399Z,55.30
2019-04-26T10:35:44.433Z,55.30
2019-04-26T10:38:13.488Z,55.30
2019-04-26T10:40:42.540Z,55.30
2019-04-26T10:43:12.425Z,55.20
2019-04-26T10:45:41.518Z,55.10
2019-04-26T10:48:13.927Z,54.80
2019-04-26T10:50:41.355Z,54.50
2019-04-26T10:53:14.999Z,54.00
2019-04-26T10:55:50.228Z,54.00
2019-04-26T10:58:37.869Z,53.70
2019-04-26T11:01:10.932Z,53.40
2019-04-26T11:03:40.030Z,53.30
2019-04-26T11:06:09.255Z,53.00
2019-04-26T11:08:38.305Z,52.90
2019-04-26T11:11:09.376Z,52.90
2019-04-26T11:13:38.212Z,53.00
2019-04-26T11:16:08.906Z,53.00
2019-04-26T11:18:38.207Z,52.90
2019-04-26T11:21:07.319Z,53.00
2019-04-26T11:23:36.621Z,53.10
2019-04-26T11:26:05.694Z,53.10
2019-04-26T11:28:34.792Z,53.20
2019-04-26T11:31:04.053Z,53.10
2019-04-26T11:33:44.220Z,53.10
2019-04-26T11:36:07.296Z,53.10
2019-04-26T11:38:34.712Z,53.20
2019-04-26T11:41:06.404Z,53.30
2019-04-26T11:43:34.539Z,53.20
2019-04-26T11:46:05.416Z,52.90
2019-04-26T11:48:34.558Z,52.70
2019-04-26T11:51:03.659Z,52.70
2019-04-26T11:53:33.544Z,52.40
2019-04-26T11:56:04.606Z,52.60
2019-04-26T11:58:33.574Z,52.50
2019-04-26T12:01:04.242Z,52.70
2019-04-26T12:03:33.279Z,52.80
2019-04-26T12:06:03.955Z,52.50
2019-04-26T12:08:46.606Z,52.30
2019-04-26T12:11:18.985Z,52.40
2019-04-26T12:13:46.410Z,52.30
2019-04-26T12:16:18.871Z,52.10
2019-04-26T12:18:46.229Z,52.10
2019-04-26T12:21:14.981Z,51.70
2019-04-26T12:23:44.015Z,51.80
2019-04-26T12:26:13.065Z,51.70
2019-04-26T12:28:41.815Z,51.50
2019-04-26T12:31:10.935Z,51.20
2019-04-26T12:33:43.711Z,51.00
2019-04-26T12:36:13.388Z,51.10
2019-04-26T12:38:41.682Z,51.60
2019-04-26T12:41:11.616Z,51.60
2019-04-26T12:43:41.010Z,51.60
2019-04-26T12:46:27.097Z,51.50
2019-04-26T12:48:54.507Z,51.40
2019-04-26T12:51:23.560Z,51.60
2019-04-26T12:53:52.586Z,51.80
2019-04-26T12:56:21.635Z,51.60
2019-04-26T12:58:51.287Z,51.70
2019-04-26T13:01:20.518Z,51.70
2019-04-26T13:04:05.650Z,51.70
2019-04-26T13:06:37.373Z,51.60
2019-04-26T13:09:16.747Z,51.60
2019-04-26T13:11:52.887Z,51.70
2019-04-26T13:14:42.934Z,51.20
2019-04-26T13:17:35.523Z,50.90
2019-04-26T13:20:01.859Z,50.80
2019-04-26T13:22:32.172Z,50.70
2019-04-26T13:25:01.046Z,50.80
2019-04-26T13:27:29.806Z,51.00
2019-04-26T13:30:02.486Z,51.00
2019-04-26T13:32:29.316Z,51.70
2019-04-26T13:34:58.070Z,51.60
2019-04-26T13:37:26.824Z,51.70
2019-04-26T13:39:56.711Z,51.70
2019-04-26T13:42:25.603Z,51.70
2019-04-26T13:44:58.985Z,51.80
2019-04-26T13:47:32.188Z,51.30
2019-04-26T13:50:02.947Z,51.20
2019-04-26T13:52:31.974Z,51.40
2019-04-26T13:55:01.035Z,51.60
2019-04-26T13:57:30.073Z,51.80
2019-04-26T14:00:02.468Z,51.80
2019-04-26T14:02:29.958Z,52.20
2019-04-26T14:04:59.012Z,52.60
2019-04-26T14:07:28.062Z,53.20
2019-04-26T14:09:57.136Z,53.40
2019-04-26T14:12:26.186Z,53.70
2019-04-26T14:14:55.228Z,54.00
2019-04-26T14:17:25.989Z,54.00
2019-04-26T14:19:55.053Z,54.20
2019-04-26T14:22:25.737Z,54.30
2019-04-26T14:24:58.881Z,54.70
2019-04-26T14:27:32.464Z,54.90
2019-04-26T14:30:02.445Z,55.20
2019-04-26T14:32:32.304Z,55.20
2019-04-26T14:35:01.546Z,55.10
2019-04-26T14:37:30.703Z,54.60
2019-04-26T14:40:16.013Z,54.30
2019-04-26T14:42:34.456Z,54.70
2019-04-26T14:45:02.254Z,54.90
2019-04-26T14:47:32.110Z,55.10
2019-04-26T14:50:13.268Z,55.30
2019-04-26T14:52:31.947Z,55.80
2019-04-26T14:55:00.990Z,55.90
2019-04-26T14:57:31.716Z,56.10
2019-04-26T15:00:00.814Z,56.30
2019-04-26T15:02:34.179Z,56.40
2019-04-26T15:05:09.328Z,56.20
2019-04-26T15:07:48.631Z,56.60
2019-04-26T15:10:10.919Z,56.80
2019-04-26T15:12:46.243Z,56.80
2019-04-26T15:15:11.297Z,56.90
2019-04-26T15:17:40.372Z,56.80
2019-04-26T15:20:09.583Z,56.90
2019-04-26T15:22:38.656Z,56.90
2019-04-26T15:25:11.646Z,57.10
2019-04-26T15:27:38.644Z,57.00
2019-04-26T15:30:08.558Z,57.40
2019-04-26T15:32:37.617Z,57.80
2019-04-26T15:35:06.687Z,58.10
2019-04-26T15:37:35.810Z,58.50
2019-04-26T15:40:27.447Z,58.70
2019-04-26T15:43:03.003Z,58.70
2019-04-26T15:45:44.003Z,58.70
2019-04-26T15:48:33.003Z,58.50
2019-04-26T15:51:02.760Z,58.40
2019-04-26T15:53:33.199Z,58.60
2019-04-26T15:56:02.659Z,58.50
2019-04-26T15:58:31.804Z,59.40
2019-04-26T16:01:02.710Z,58.90
2019-04-26T16:03:32.787Z,59.20
2019-04-26T16:06:07.060Z,59.50
2019-04-26T16:08:34.023Z,59.80
2019-04-26T16:11:07.231Z,60.40
2019-04-26T16:13:34.449Z,61.40
2019-04-26T16:16:03.825Z,61.50
2019-04-26T16:18:33.021Z,61.90
2019-04-26T16:21:03.548Z,62.40
2019-04-26T16:23:41.230Z,62.60
2019-04-26T16:26:03.705Z,63.00
2019-04-26T16:28:34.405Z,63.70
2019-04-26T16:31:12.370Z,64.00
2019-04-26T16:33:46.229Z,64.20
2019-04-26T16:36:15.315Z,65.20
2019-04-26T16:38:44.361Z,64.70
2019-04-26T16:41:13.434Z,64.80
2019-04-26T16:43:50.923Z,64.80
2019-04-26T16:46:20.041Z,64.80
2019-04-26T16:48:44.527Z,65.00
2019-04-26T16:51:14.414Z,65.30
2019-04-26T16:54:02.953Z,65.80
2019-04-26T16:56:14.611Z,66.50
2019-04-26T16:58:45.339Z,67.10
2019-04-26T17:01:15.380Z,67.30
2019-04-26T17:03:48.029Z,67.30
2019-04-26T17:06:15.415Z,67.50
2019-04-26T17:08:49.928Z,67.60
2019-04-26T17:11:15.318Z,67.70
2019-04-26T17:13:50.565Z,68.00
2019-04-26T17:16:15.171Z,68.00
2019-04-26T17:18:44.229Z,68.10
2019-04-26T17:21:17.705Z,68.10
2019-04-26T17:23:55.207Z,68.20
2019-04-26T17:26:33.635Z,68.20
2019-04-26T17:29:02.660Z,68.30
2019-04-26T17:31:33.601Z,68.10
2019-04-26T17:34:03.543Z,68.10
2019-04-26T17:36:34.493Z,67.80
2019-04-26T17:39:05.438Z,67.80
2019-04-26T17:41:34.485Z,68.00
2019-04-26T17:44:10.504Z,68.90
2019-04-26T17:46:34.383Z,68.10
2019-04-26T17:49:03.573Z,68.10
2019-04-26T17:51:41.755Z,68.00
2019-04-26T17:54:21.061Z,67.80
2019-04-26T17:56:37.568Z,67.80
2019-04-26T17:59:09.385Z,67.50
2019-04-26T18:01:46.879Z,66.80
2019-04-26T18:04:08.333Z,67.50
2019-04-26T18:06:37.490Z,67.60
2019-04-26T18:09:07.558Z,67.60
2019-04-26T18:11:36.599Z,67.40
2019-04-26T18:14:08.165Z,67.50
2019-04-26T18:16:38.205Z,67.50
2019-04-26T18:19:12.792Z,67.50
2019-04-26T18:21:43.800Z,67.60
2019-04-26T18:24:13.255Z,67.40
2019-04-26T18:26:42.537Z,67.20
2019-04-26T18:29:13.136Z,67.20
2019-04-26T18:31:43.781Z,67.20
2019-04-26T18:34:13.036Z,67.20
2019-04-26T18:36:43.002Z,68.00
2019-04-26T18:39:12.355Z,67.10
2019-04-26T18:41:41.467Z,67.00
2019-04-26T18:44:10.567Z,66.90
2019-04-26T18:46:47.163Z,66.90
2019-04-26T18:49:18.188Z,66.80
2019-04-26T18:51:48.500Z,66.70
2019-04-26T18:54:30.493Z,66.90
2019-04-26T18:57:01.018Z,67.40
2019-04-26T18:59:30.046Z,68.50
2019-04-26T19:01:59.260Z,70.10
2019-04-26T19:04:28.429Z,72.00
2019-04-26T19:06:57.532Z,73.60
2019-04-26T19:09:28.527Z,74.80
2019-04-26T19:11:57.623Z,75.60
2019-04-26T19:14:34.150Z,76.50
2019-04-26T19:17:08.378Z,77.50
2019-04-26T19:19:55.612Z,78.90
2019-04-26T19:22:24.853Z,79.70
2019-04-26T19:24:57.499Z,80.50
2019-04-26T19:27:26.604Z,81.10
2019-04-26T19:29:55.448Z,81.90
2019-04-26T19:32:24.530Z,81.90
2019-04-26T19:34:53.584Z,82.00
2019-04-26T19:37:23.324Z,81.70
2019-04-26T19:39:52.728Z,81.90
2019-04-26T19:42:21.773Z,82.00
2019-04-26T19:45:09.498Z,81.90
2019-04-26T19:47:35.367Z,82.00
2019-04-26T19:50:09.573Z,81.80
2019-04-26T19:52:55.903Z,81.50
2019-04-26T19:55:32.381Z,81.10
2019-04-26T19:58:09.674Z,80.80
2019-04-26T20:00:38.476Z,80.70
2019-04-26T20:03:08.634Z,80.50
2019-04-26T20:05:40.453Z,80.20
2019-04-26T20:08:08.927Z,80.10
2019-04-26T20:10:40.596Z,80.30
2019-04-26T20:13:15.033Z,80.70
2019-04-26T20:15:39.519Z,81.30
2019-04-26T20:18:08.537Z,82.00
2019-04-26T20:20:37.570Z,82.50
2019-04-26T20:23:08.051Z,83.10
2019-04-26T20:25:37.309Z,83.90
2019-04-26T20:28:06.429Z,84.50
2019-04-26T20:30:57.447Z,85.10
2019-04-26T20:33:26.595Z,85.60
2019-04-26T20:35:57.530Z,86.10
2019-04-26T20:38:27.487Z,86.50
2019-04-26T20:40:56.523Z,86.80
2019-04-26T20:43:26.673Z,87.10
2019-04-26T20:46:10.909Z,87.60
2019-04-26T20:48:30.130Z,88.10
2019-04-26T20:50:57.533Z,88.50
2019-04-26T20:53:26.645Z,88.80
2019-04-26T20:55:55.706Z,89.10
2019-04-26T20:58:24.755Z,89.60
2019-04-26T21:00:54.833Z,90.00
2019-04-26T21:03:27.678Z,90.00
2019-04-26T21:05:59.036Z,90.10
2019-04-26T21:08:26.876Z,90.00
2019-04-26T21:11:00.058Z,90.10
2019-04-26T21:13:30.577Z,90.20
2019-04-26T21:15:58.779Z,90.20
2019-04-26T21:18:28.514Z,90.20
2019-04-26T21:20:57.565Z,90.30
2019-04-26T21:23:26.700Z,90.40
2019-04-26T21:26:16.537Z,90.50
2019-04-26T21:28:47.449Z,90.70
2019-04-26T21:31:18.128Z,90.90
2019-04-26T21:33:53.494Z,91.20
2019-04-26T21:36:24.010Z,91.50
2019-04-26T21:39:13.802Z,91.80
2019-04-26T21:41:48.252Z,92.10
2019-04-26T21:44:15.846Z,92.30
2019-04-26T21:46:44.983Z,92.60
2019-04-26T21:49:20.186Z,93.00
2019-04-26T21:51:51.324Z,93.10
2019-04-26T21:54:18.027Z,93.40
2019-04-26T21:56:49.707Z,93.70
2019-04-26T21:59:17.179Z,93.90
2019-04-26T22:01:48.319Z,94.00
2019-04-26T22:04:17.242Z,93.90
2019-04-26T22:06:46.301Z,94.10
2019-04-26T22:09:36.726Z,94.20
2019-04-26T22:12:07.106Z,94.40
2019-04-26T22:14:37.777Z,94.50
2019-04-26T22:17:08.451Z,94.50
2019-04-26T22:19:39.150Z,94.50
2019-04-26T22:22:09.824Z,94.90
2019-04-26T22:24:43.622Z,94.60
2019-04-26T22:27:13.342Z,94.80
2019-04-26T22:29:43.552Z,94.60
2019-04-26T22:32:16.040Z,94.60
2019-04-26T22:34:46.144Z,94.60
2019-04-26T22:37:28.839Z,94.60
2019-04-26T22:39:45.701Z,94.40
2019-04-26T22:42:14.753Z,94.40
2019-04-26T22:44:48.119Z,94.50
2019-04-26T22:47:21.524Z,94.40
2019-04-26T22:49:50.833Z,94.40
2019-04-26T22:52:20.011Z,94.20
2019-04-26T22:54:49.050Z,94.10
2019-04-26T22:57:18.169Z,94.00
2019-04-26T22:59:50.150Z,94.00
2019-04-26T23:02:25.834Z,94.00
2019-04-26T23:04:49.179Z,93.90
2019-04-26T23:07:24.895Z,93.80
2019-04-26T23:09:55.118Z,93.70
2019-04-26T23:12:27.898Z,93.70
2019-04-26T23:15:03.090Z,93.60
2019-04-26T23:17:45.940Z,93.50
2019-04-26T23:20:19.518Z,93.40
2019-04-26T23:22:48.564Z,93.40
2019-04-26T23:25:17.623Z,93.30
2019-04-26T23:27:50.509Z,93.20
2019-04-26T23:30:17.624Z,93.20
2019-04-26T23:32:48.473Z,93.10
2019-04-26T23:35:17.528Z,93.00
2019-04-26T23:37:46.580Z,93.00
2019-04-26T23:40:15.652Z,93.00
2019-04-26T23:42:47.544Z,93.00
2019-04-26T23:45:15.484Z,92.90
2019-04-26T23:47:44.541Z,92.90
2019-04-26T23:50:14.057Z,92.80
2019-04-26T23:52:43.738Z,92.70
2019-04-26T23:55:13.498Z,92.70
2019-04-26T23:57:43.497Z,92.80
